Time;durP1;ratioP1;P1;durP2;ratioP2;P2;SDS_P1;SDS_P2;PMS_P1;PMS_P2;Temp;Humidity;BMP_temperature;BMP_pressure;BME280_temperature;BME280_humidity;BME280_pressure;Samples;Min_cycle;Max_cycle;Signal;HPM_P1;HPM_P2
2021/10/13 00:00:39;;;;;;;0.30;0.20;;;8.00;99.90;;;;;;5085474;28;20200;-81
2021/10/13 00:03:05;;;;;;;0.60;0.50;;;8.00;99.90;;;;;;5088108;28;20168;-81
2021/10/13 00:05:31;;;;;;;0.50;0.30;;;8.00;99.90;;;;;;5089435;28;20209;-81
2021/10/13 00:07:56;;;;;;;0.23;0.23;;;8.00;99.90;;;;;;5088492;28;20181;-81
2021/10/13 00:10:22;;;;;;;0.47;0.47;;;7.90;99.90;;;;;;5086733;28;20716;-81
2021/10/13 00:12:47;;;;;;;0.20;0.20;;;7.90;99.90;;;;;;5086106;28;20225;-81
2021/10/13 00:15:13;;;;;;;0.10;0.10;;;7.70;99.90;;;;;;5086140;28;20207;-81
2021/10/13 00:17:39;;;;;;;0.20;0.20;;;7.70;99.90;;;;;;5086881;28;20175;-82
2021/10/13 00:20:06;;;;;;;0.30;0.30;;;7.80;99.90;;;;;;5093856;28;20225;-81
2021/10/13 00:22:31;;;;;;;0.20;0.20;;;7.80;99.90;;;;;;5078979;28;20180;-81
2021/10/13 00:24:57;;;;;;;0.20;0.20;;;7.80;99.90;;;;;;5088129;28;20177;-81
2021/10/13 00:27:23;;;;;;;0.33;0.33;;;7.80;99.90;;;;;;5088815;28;20197;-81
2021/10/13 00:29:48;;;;;;;0.20;0.20;;;7.80;99.90;;;;;;5090042;28;20196;-82
2021/10/13 00:32:14;;;;;;;0.30;0.30;;;7.80;99.90;;;;;;5082045;28;20179;-81
2021/10/13 00:34:40;;;;;;;0.30;0.30;;;7.80;99.90;;;;;;5087334;28;20205;-81
2021/10/13 00:37:06;;;;;;;0.80;0.27;;;7.80;99.90;;;;;;5080679;28;20249;-81
2021/10/13 00:39:32;;;;;;;0.20;0.20;;;7.80;99.90;;;;;;5095077;28;20196;-82
2021/10/13 00:41:58;;;;;;;0.83;0.83;;;7.80;99.90;;;;;;5084978;28;20172;-81
2021/10/13 00:44:23;;;;;;;0.57;0.50;;;7.70;99.90;;;;;;5099073;28;20179;-81
2021/10/13 00:46:49;;;;;;;0.30;0.30;;;7.80;99.90;;;;;;5101052;28;20194;-81
2021/10/13 00:49:15;;;;;;;0.20;0.20;;;7.60;99.90;;;;;;5087584;28;20179;-81
2021/10/13 00:51:40;;;;;;;0.43;0.43;;;7.60;99.90;;;;;;5093246;28;20250;-80
2021/10/13 00:54:08;;;;;;;0.30;0.30;;;7.70;99.90;;;;;;5091935;28;20172;-81
2021/10/13 00:56:33;;;;;;;0.57;0.57;;;7.60;99.90;;;;;;5099747;28;20197;-81
2021/10/13 00:58:59;;;;;;;0.47;0.30;;;7.70;99.90;;;;;;5106737;28;20168;-80
2021/10/13 01:01:53;;;;;;;0.10;0.10;;;7.70;99.90;;;;;;5087929;28;20244;-81
2021/10/13 01:05:06;;;;;;;0.13;0.13;;;7.70;99.90;;;;;;5089356;28;20180;-81
2021/10/13 01:07:37;;;;;;;0.53;0.43;;;7.70;99.90;;;;;;5026184;28;20196;-80
2021/10/13 01:10:23;;;;;;;0.57;0.40;;;7.60;99.90;;;;;;5092675;28;20200;-81
2021/10/13 01:12:53;;;;;;;0.60;0.43;;;7.60;99.90;;;;;;5086099;28;20260;-82
2021/10/13 01:15:29;;;;;;;0.10;0.10;;;7.70;99.90;;;;;;5092172;28;20698;-82
2021/10/13 01:18:08;;;;;;;0.57;0.53;;;7.70;99.90;;;;;;5099542;28;20275;-81
2021/10/13 01:20:53;;;;;;;0.30;0.30;;;7.70;99.90;;;;;;5093434;28;20179;-81
2021/10/13 01:23:33;;;;;;;0.60;0.60;;;7.70;99.90;;;;;;5087480;28;20169;-81
2021/10/13 01:26:40;;;;;;;0.20;0.20;;;7.70;99.90;;;;;;5085474;28;20363;-81
2021/10/13 01:29:10;;;;;;;0.57;0.43;;;7.60;99.90;;;;;;5050686;28;20665;-81
2021/10/13 01:32:02;;;;;;;0.40;0.40;;;7.70;99.90;;;;;;5089178;28;20208;-81
2021/10/13 01:34:32;;;;;;;0.10;0.10;;;7.70;99.90;;;;;;5078798;28;20566;-81
2021/10/13 01:37:04;;;;;;;1.00;0.90;;;7.60;99.90;;;;;;5070693;28;20277;-81
2021/10/13 01:39:32;;;;;;;0.27;0.27;;;7.70;99.90;;;;;;5090509;28;20230;-81
2021/10/13 01:42:03;;;;;;;1.13;0.57;;;7.60;99.90;;;;;;5077036;28;20182;-81
2021/10/13 01:44:31;;;;;;;0.10;0.10;;;7.70;99.90;;;;;;5079979;28;20165;-81
2021/10/13 01:46:58;;;;;;;0.30;0.30;;;7.70;99.90;;;;;;5081200;28;20195;-81
2021/10/13 01:49:24;;;;;;;0.63;0.40;;;7.70;99.90;;;;;;5082536;28;20184;-81
2021/10/13 01:51:52;;;;;;;0.50;0.50;;;7.70;99.90;;;;;;5085861;28;20208;-81
2021/10/13 01:54:19;;;;;;;0.10;0.10;;;7.70;99.90;;;;;;5077148;28;20188;-81
2021/10/13 01:56:46;;;;;;;0.20;0.20;;;7.70;99.90;;;;;;5071873;28;20200;-81
2021/10/13 01:59:20;;;;;;;0.20;0.20;;;7.70;99.90;;;;;;5092016;28;20663;-80
2021/10/13 02:01:48;;;;;;;0.50;0.50;;;7.70;99.90;;;;;;5093472;28;20207;-81
2021/10/13 02:04:15;;;;;;;0.67;0.40;;;7.80;99.90;;;;;;5081727;28;20335;-81
2021/10/13 02:06:43;;;;;;;0.63;0.40;;;7.90;99.90;;;;;;5087583;28;20204;-80
2021/10/13 02:09:10;;;;;;;0.97;0.80;;;7.90;99.90;;;;;;5082658;28;20180;-80
2021/10/13 02:11:35;;;;;;;1.13;0.43;;;7.90;99.90;;;;;;5083399;28;20193;-82
2021/10/13 02:14:09;;;;;;;0.17;0.17;;;7.90;99.90;;;;;;5079322;28;20223;-81
2021/10/13 02:16:37;;;;;;;0.30;0.30;;;7.80;99.90;;;;;;5073978;28;20205;-81
2021/10/13 02:19:05;;;;;;;0.07;0.07;;;7.80;99.90;;;;;;5091346;28;20587;-80
2021/10/13 02:21:35;;;;;;;1.13;0.40;;;7.90;99.90;;;;;;5082416;28;20603;-80
2021/10/13 02:24:02;;;;;;;0.63;0.23;;;7.90;99.90;;;;;;5088625;28;20181;-82
2021/10/13 02:26:37;;;;;;;0.23;0.23;;;8.00;99.90;;;;;;5077992;28;20232;-81
2021/10/13 02:29:09;;;;;;;0.23;0.23;;;8.00;99.90;;;;;;5069489;28;20588;-81
2021/10/13 02:31:34;;;;;;;0.87;0.27;;;8.00;99.90;;;;;;5079471;28;20203;-82
2021/10/13 02:34:00;;;;;;;0.63;0.30;;;8.00;99.90;;;;;;5079120;28;20784;-81
2021/10/13 02:36:26;;;;;;;0.83;0.30;;;8.00;99.90;;;;;;5075965;28;20193;-81
2021/10/13 02:38:52;;;;;;;0.20;0.20;;;8.00;99.90;;;;;;5084733;28;20181;-81
2021/10/13 02:41:17;;;;;;;0.30;0.30;;;8.00;99.90;;;;;;5084984;28;20255;-80
2021/10/13 02:43:43;;;;;;;0.43;0.43;;;8.10;99.90;;;;;;5088738;28;20173;-81
2021/10/13 02:46:16;;;;;;;0.30;0.30;;;8.00;99.90;;;;;;5092436;28;20672;-81
2021/10/13 02:48:48;;;;;;;0.23;0.23;;;8.00;99.90;;;;;;5077636;28;20654;-81
2021/10/13 02:51:38;;;;;;;0.17;0.17;;;7.80;99.90;;;;;;5093699;28;20200;-81
2021/10/13 02:54:12;;;;;;;0.10;0.10;;;7.70;99.90;;;;;;5078396;28;20193;-81
2021/10/13 02:56:43;;;;;;;1.67;0.53;;;7.70;99.90;;;;;;5092551;28;20272;-81
2021/10/13 02:59:36;;;;;;;0.10;0.10;;;7.80;99.90;;;;;;5085254;28;20165;-80
2021/10/13 03:02:11;;;;;;;0.30;0.30;;;7.80;99.90;;;;;;5094044;28;20173;-80
2021/10/13 03:04:47;;;;;;;0.30;0.30;;;7.80;99.90;;;;;;5080593;28;20172;-81
2021/10/13 03:07:17;;;;;;;1.07;0.30;;;7.80;99.90;;;;;;5084788;28;20179;-81
2021/10/13 03:09:59;;;;;;;2.23;1.07;;;7.80;99.90;;;;;;5091127;28;20545;-81
2021/10/13 03:12:30;;;;;;;0.20;0.20;;;7.80;99.90;;;;;;5089396;28;20846;-81
2021/10/13 03:14:57;;;;;;;0.40;0.40;;;7.80;99.90;;;;;;5089759;28;20187;-81
2021/10/13 03:17:23;;;;;;;0.40;0.40;;;7.90;99.90;;;;;;5094692;28;20521;-81
2021/10/13 03:19:52;;;;;;;0.33;0.33;;;7.90;99.90;;;;;;5079924;28;20554;-81
2021/10/13 03:22:18;;;;;;;1.07;0.47;;;8.00;99.90;;;;;;5074993;28;20264;-81
2021/10/13 03:24:44;;;;;;;0.87;0.87;;;8.00;99.90;;;;;;5088838;28;20172;-81
2021/10/13 03:27:09;;;;;;;1.73;0.77;;;8.00;99.90;;;;;;5083973;28;20246;-81
2021/10/13 03:29:42;;;;;;;0.60;0.40;;;8.10;99.90;;;;;;5087936;28;20519;-81
2021/10/13 03:32:09;;;;;;;0.40;0.40;;;8.00;99.90;;;;;;5083352;28;20180;-82
2021/10/13 03:34:34;;;;;;;0.83;0.73;;;8.00;99.90;;;;;;5072383;28;20529;-81
2021/10/13 03:37:00;;;;;;;0.20;0.20;;;8.00;99.90;;;;;;5092660;28;20200;-81
2021/10/13 03:39:26;;;;;;;0.30;0.30;;;8.00;99.90;;;;;;5083968;28;21045;-80
2021/10/13 03:41:51;;;;;;;0.13;0.13;;;8.10;99.90;;;;;;5086080;28;20179;-81
2021/10/13 03:44:19;;;;;;;0.40;0.40;;;8.10;99.90;;;;;;5096315;28;20204;-81
2021/10/13 03:46:46;;;;;;;0.20;0.20;;;8.20;99.90;;;;;;5071231;28;20205;-81
2021/10/13 03:49:11;;;;;;;0.27;0.27;;;8.20;99.90;;;;;;5070744;28;20273;-81
2021/10/13 03:51:37;;;;;;;0.53;0.53;;;8.20;99.90;;;;;;5083623;28;20273;-81
2021/10/13 03:54:03;;;;;;;0.20;0.20;;;8.30;99.90;;;;;;5084510;28;20179;-81
2021/10/13 03:56:32;;;;;;;1.20;0.43;;;8.30;99.90;;;;;;5075051;28;20200;-81
2021/10/13 03:58:58;;;;;;;0.80;0.80;;;8.30;99.90;;;;;;5083620;28;20181;-81
2021/10/13 04:01:24;;;;;;;0.20;0.20;;;8.40;99.90;;;;;;5072083;28;20190;-80
2021/10/13 04:03:50;;;;;;;0.37;0.37;;;8.40;99.90;;;;;;5082065;28;20186;-82
2021/10/13 04:06:16;;;;;;;0.30;0.30;;;8.40;99.90;;;;;;5081164;28;20286;-82
2021/10/13 04:08:41;;;;;;;0.47;0.47;;;8.40;99.90;;;;;;5083666;28;20213;-81
2021/10/13 04:11:07;;;;;;;0.60;0.60;;;8.40;99.90;;;;;;5085467;28;20213;-81
2021/10/13 04:13:33;;;;;;;0.33;0.33;;;8.50;99.90;;;;;;5087404;28;20188;-81
2021/10/13 04:15:59;;;;;;;0.17;0.13;;;8.60;99.90;;;;;;5079558;28;20243;-81
2021/10/13 04:18:24;;;;;;;3.87;0.83;;;8.50;99.90;;;;;;5080160;28;20640;-83
2021/10/13 04:20:50;;;;;;;0.40;0.40;;;8.30;99.90;;;;;;5082069;28;20272;-80
2021/10/13 04:23:16;;;;;;;0.30;0.23;;;8.30;99.90;;;;;;5057104;28;20198;-80
2021/10/13 04:25:42;;;;;;;0.20;0.20;;;8.30;99.90;;;;;;5072154;28;20206;-81
2021/10/13 04:28:07;;;;;;;0.73;0.70;;;8.30;99.90;;;;;;5064247;28;20298;-80
2021/10/13 04:30:33;;;;;;;0.37;0.37;;;8.40;99.90;;;;;;5080243;28;20214;-82
2021/10/13 04:32:58;;;;;;;0.50;0.50;;;8.40;99.90;;;;;;5076310;28;20229;-80
2021/10/13 04:35:24;;;;;;;0.30;0.30;;;8.50;99.90;;;;;;5076311;28;20717;-79
2021/10/13 04:37:50;;;;;;;0.63;0.60;;;8.50;99.90;;;;;;5078901;28;20177;-84
2021/10/13 04:40:15;;;;;;;0.37;0.37;;;8.60;99.90;;;;;;5070010;28;20288;-80
2021/10/13 04:42:41;;;;;;;0.40;0.40;;;8.60;99.90;;;;;;5078835;28;20254;-81
2021/10/13 04:45:07;;;;;;;1.00;0.67;;;8.70;99.90;;;;;;5069661;28;20198;-80
2021/10/13 04:47:32;;;;;;;0.50;0.50;;;8.80;99.90;;;;;;5070742;28;20181;-81
2021/10/13 04:49:58;;;;;;;0.43;0.43;;;8.80;99.90;;;;;;5080070;28;20202;-82
2021/10/13 04:52:23;;;;;;;0.83;0.73;;;8.90;99.90;;;;;;5081130;28;20295;-82
2021/10/13 04:54:49;;;;;;;0.37;0.37;;;8.90;99.90;;;;;;5085238;28;20176;-82
2021/10/13 04:57:15;;;;;;;2.00;0.63;;;9.00;99.90;;;;;;5069179;28;20545;-80
2021/10/13 04:59:40;;;;;;;0.37;0.37;;;9.00;99.90;;;;;;5084439;28;20238;-80
2021/10/13 05:02:06;;;;;;;1.67;0.23;;;9.00;99.90;;;;;;5071124;28;20189;-80
2021/10/13 05:04:31;;;;;;;0.50;0.50;;;9.00;99.90;;;;;;5072301;28;20177;-80
2021/10/13 05:06:57;;;;;;;0.67;0.67;;;9.10;99.90;;;;;;5076412;28;20273;-79
2021/10/13 05:09:24;;;;;;;0.50;0.50;;;9.10;99.90;;;;;;5077750;28;20173;-80
2021/10/13 05:11:49;;;;;;;0.10;0.10;;;8.90;99.90;;;;;;5074702;28;20194;-80
2021/10/13 05:14:15;;;;;;;0.23;0.17;;;9.00;99.90;;;;;;5074585;28;20648;-80
2021/10/13 05:16:41;;;;;;;1.63;0.60;;;9.10;99.90;;;;;;5068278;28;20259;-82
2021/10/13 05:19:08;;;;;;;0.63;0.30;;;9.10;99.90;;;;;;5067302;28;20191;-84
2021/10/13 05:21:34;;;;;;;0.37;0.37;;;9.20;99.90;;;;;;5092352;28;20172;-84
2021/10/13 05:23:59;;;;;;;0.73;0.70;;;9.20;99.90;;;;;;5087289;28;20189;-83
2021/10/13 05:26:32;;;;;;;0.83;0.60;;;9.30;99.90;;;;;;5086310;28;20218;-83
2021/10/13 05:28:58;;;;;;;0.23;0.20;;;9.30;99.90;;;;;;5064710;28;20186;-84
2021/10/13 05:31:23;;;;;;;0.30;0.30;;;9.30;99.90;;;;;;5086499;28;20694;-84
2021/10/13 05:33:49;;;;;;;1.13;0.57;;;9.20;99.90;;;;;;5072121;28;20193;-83
2021/10/13 05:36:14;;;;;;;1.33;0.80;;;9.20;99.90;;;;;;5077066;28;20229;-82
2021/10/13 05:38:40;;;;;;;0.60;0.60;;;9.20;99.90;;;;;;5088390;28;20183;-84
2021/10/13 05:41:05;;;;;;;0.53;0.43;;;9.10;99.90;;;;;;5096314;28;20186;-82
2021/10/13 05:43:31;;;;;;;0.37;0.27;;;8.80;99.90;;;;;;5082006;28;20553;-82
2021/10/13 05:45:57;;;;;;;1.80;0.60;;;8.60;99.90;;;;;;5073067;28;20214;-82
2021/10/13 05:48:22;;;;;;;0.50;0.43;;;8.70;99.90;;;;;;5070551;28;20190;-82
2021/10/13 05:50:49;;;;;;;0.53;0.40;;;8.80;99.90;;;;;;5078473;28;20205;-81
2021/10/13 05:53:15;;;;;;;2.53;0.77;;;8.90;99.90;;;;;;5074735;28;20184;-81
2021/10/13 05:55:40;;;;;;;0.73;0.73;;;9.10;99.90;;;;;;5090628;28;20206;-81
2021/10/13 05:58:06;;;;;;;0.63;0.40;;;9.10;99.90;;;;;;5074989;28;20212;-82
2021/10/13 06:00:32;;;;;;;0.43;0.43;;;9.10;99.90;;;;;;5081111;28;20178;-82
2021/10/13 06:03:01;;;;;;;0.63;0.63;;;9.10;99.90;;;;;;5081094;28;20176;-82
2021/10/13 06:05:27;;;;;;;0.60;0.60;;;9.10;99.90;;;;;;5089999;28;20688;-82
2021/10/13 06:07:53;;;;;;;1.50;0.43;;;9.10;99.90;;;;;;5085235;28;20184;-83
2021/10/13 06:10:19;;;;;;;5.13;1.33;;;9.00;99.90;;;;;;5083544;28;20279;-81
2021/10/13 06:12:45;;;;;;;0.67;0.33;;;9.10;99.90;;;;;;5084750;28;20671;-81
2021/10/13 06:15:11;;;;;;;3.13;1.63;;;9.10;99.90;;;;;;5080644;28;20200;-82
2021/10/13 06:17:36;;;;;;;0.43;0.43;;;9.10;99.90;;;;;;5079588;28;20243;-81
2021/10/13 06:20:03;;;;;;;0.50;0.47;;;9.10;99.90;;;;;;5090885;28;20180;-82
2021/10/13 06:22:29;;;;;;;1.13;0.77;;;9.10;99.90;;;;;;5069877;28;20191;-81
2021/10/13 06:24:56;;;;;;;1.17;0.50;;;9.20;99.90;;;;;;5067561;28;20180;-81
2021/10/13 06:27:22;;;;;;;1.67;1.30;;;9.30;99.90;;;;;;5065442;28;20198;-81
2021/10/13 06:29:48;;;;;;;0.43;0.43;;;9.30;99.90;;;;;;5085558;28;20231;-81
2021/10/13 06:32:14;;;;;;;0.77;0.77;;;9.40;99.90;;;;;;5062893;28;20177;-81
2021/10/13 06:34:39;;;;;;;1.10;0.47;;;9.40;99.90;;;;;;5066579;28;20174;-82
2021/10/13 06:37:06;;;;;;;0.47;0.47;;;9.40;99.90;;;;;;5061568;28;20208;-82
2021/10/13 06:39:31;;;;;;;0.27;0.27;;;9.40;99.90;;;;;;5061681;28;20183;-81
2021/10/13 06:41:57;;;;;;;0.40;0.40;;;9.30;99.90;;;;;;5066943;28;20667;-81
2021/10/13 06:44:23;;;;;;;0.93;0.90;;;9.30;99.90;;;;;;5068600;28;20213;-81
2021/10/13 06:46:50;;;;;;;0.87;0.87;;;9.50;99.90;;;;;;5086452;28;20583;-82
2021/10/13 06:49:16;;;;;;;0.97;0.70;;;9.50;99.90;;;;;;5073198;28;20208;-82
2021/10/13 06:51:42;;;;;;;0.97;0.60;;;9.60;99.90;;;;;;5075200;28;20678;-82
2021/10/13 06:54:08;;;;;;;0.90;0.57;;;9.60;99.90;;;;;;5067033;28;20277;-81
2021/10/13 06:56:35;;;;;;;0.97;0.53;;;9.80;99.90;;;;;;5066656;28;20298;-81
2021/10/13 06:59:00;;;;;;;0.50;0.50;;;9.90;99.90;;;;;;5090012;28;20180;-81
2021/10/13 07:01:26;;;;;;;0.60;0.60;;;10.00;99.90;;;;;;5080694;28;20210;-82
2021/10/13 07:03:51;;;;;;;1.60;1.50;;;10.10;99.90;;;;;;5071052;28;20184;-81
2021/10/13 07:06:17;;;;;;;0.47;0.40;;;9.90;99.90;;;;;;5073253;28;20850;-81
2021/10/13 07:08:43;;;;;;;1.37;1.10;;;10.00;99.90;;;;;;5068107;28;20548;-81
2021/10/13 07:11:09;;;;;;;1.57;0.83;;;10.00;99.90;;;;;;5077557;28;20676;-81
2021/10/13 07:13:36;;;;;;;0.57;0.57;;;10.20;99.90;;;;;;5068808;28;20638;-82
2021/10/13 07:16:02;;;;;;;1.30;0.40;;;10.30;99.90;;;;;;5073287;28;20199;-81
2021/10/13 07:18:27;;;;;;;0.37;0.37;;;10.30;99.90;;;;;;5073345;28;20694;-81
2021/10/13 07:20:53;;;;;;;1.50;1.40;;;10.30;99.90;;;;;;5062843;28;20193;-82
2021/10/13 07:23:19;;;;;;;1.17;0.60;;;10.20;99.90;;;;;;5066424;28;20189;-82
2021/10/13 07:25:44;;;;;;;1.07;0.97;;;9.90;99.90;;;;;;5067208;28;20233;-82
2021/10/13 07:28:12;;;;;;;1.23;1.20;;;10.10;99.90;;;;;;5081670;28;20202;-83
2021/10/13 07:30:38;;;;;;;0.10;0.10;;;10.10;99.90;;;;;;5092269;28;20352;-82
2021/10/13 07:33:07;;;;;;;0.73;0.50;;;10.20;99.90;;;;;;5080275;28;20213;-83
2021/10/13 07:35:35;;;;;;;0.70;0.70;;;10.30;99.90;;;;;;5078822;28;20280;-82
2021/10/13 07:38:01;;;;;;;5.03;1.13;;;10.30;99.90;;;;;;5079643;28;20266;-82
2021/10/13 07:40:27;;;;;;;0.53;0.50;;;10.00;99.90;;;;;;5072959;28;20182;-82
2021/10/13 07:42:53;;;;;;;0.30;0.30;;;9.80;99.90;;;;;;5081781;28;20194;-82
2021/10/13 07:45:19;;;;;;;0.73;0.73;;;9.70;99.90;;;;;;5076762;28;20270;-82
2021/10/13 07:47:45;;;;;;;1.03;0.70;;;9.60;99.90;;;;;;5072975;28;20596;-82
2021/10/13 07:50:12;;;;;;;0.30;0.30;;;9.50;99.90;;;;;;5070787;28;20216;-82
2021/10/13 07:52:37;;;;;;;3.03;1.50;;;9.60;99.90;;;;;;5078212;28;20173;-83
2021/10/13 07:55:04;;;;;;;0.87;0.63;;;9.70;99.90;;;;;;5080327;28;20556;-81
2021/10/13 07:57:30;;;;;;;0.80;0.80;;;9.70;99.90;;;;;;5069841;28;20224;-82
2021/10/13 07:59:55;;;;;;;0.53;0.53;;;9.80;99.90;;;;;;5083032;28;20221;-81
2021/10/13 08:02:21;;;;;;;0.63;0.63;;;9.80;99.90;;;;;;5084906;28;20179;-82
2021/10/13 08:04:46;;;;;;;1.80;0.67;;;9.70;99.90;;;;;;5067406;28;20185;-82
2021/10/13 08:07:12;;;;;;;1.67;0.80;;;9.80;99.90;;;;;;5089047;28;20640;-81
2021/10/13 08:09:38;;;;;;;1.17;0.63;;;10.00;99.90;;;;;;5069542;28;20185;-82
2021/10/13 08:12:04;;;;;;;1.40;1.20;;;10.20;99.90;;;;;;5074452;28;21461;-81
2021/10/13 08:14:30;;;;;;;1.63;1.00;;;10.40;99.90;;;;;;5081665;28;20186;-86
2021/10/13 08:16:57;;;;;;;0.33;0.33;;;10.50;99.90;;;;;;5086649;28;20579;-82
2021/10/13 08:19:23;;;;;;;1.30;0.40;;;10.60;99.90;;;;;;5070131;28;20241;-82
2021/10/13 08:21:49;;;;;;;1.07;0.93;;;10.70;99.90;;;;;;5070354;28;20191;-81
2021/10/13 08:24:15;;;;;;;0.40;0.40;;;10.60;99.90;;;;;;5077777;28;20272;-81
2021/10/13 08:26:40;;;;;;;1.17;0.63;;;10.50;99.90;;;;;;5074370;28;20214;-81
2021/10/13 08:29:06;;;;;;;0.50;0.50;;;10.30;99.90;;;;;;5058069;28;20200;-81
2021/10/13 08:31:32;;;;;;;1.03;0.80;;;10.60;99.90;;;;;;5056084;28;20239;-85
2021/10/13 08:33:57;;;;;;;0.80;0.50;;;11.00;99.90;;;;;;5056147;28;20183;-81
2021/10/13 08:36:23;;;;;;;0.20;0.20;;;11.20;99.90;;;;;;5070438;28;20689;-85
2021/10/13 08:38:49;;;;;;;0.70;0.70;;;11.40;99.90;;;;;;5070533;28;20181;-82
2021/10/13 08:41:14;;;;;;;0.40;0.40;;;11.60;99.90;;;;;;5079261;28;20188;-82
2021/10/13 08:43:43;;;;;;;1.03;0.70;;;11.50;99.90;;;;;;5072958;28;20546;-82
2021/10/13 08:46:09;;;;;;;1.60;0.93;;;11.70;99.90;;;;;;5086380;28;20208;-83
2021/10/13 08:48:34;;;;;;;0.20;0.20;;;11.90;99.90;;;;;;5080031;28;20252;-83
2021/10/13 08:51:00;;;;;;;0.67;0.67;;;11.90;99.90;;;;;;5103217;28;20199;-83
2021/10/13 08:53:25;;;;;;;2.30;0.50;;;11.50;99.90;;;;;;5083911;28;20574;-82
2021/10/13 08:55:51;;;;;;;0.47;0.47;;;11.60;99.90;;;;;;5087045;28;20203;-82
2021/10/13 08:58:22;;;;;;;0.40;0.40;;;11.70;99.90;;;;;;5090509;28;20180;-83
2021/10/13 09:01:08;;;;;;;1.00;0.67;;;11.80;99.90;;;;;;5079858;28;20211;-83
2021/10/13 09:03:45;;;;;;;0.20;0.20;;;11.90;99.90;;;;;;5093881;28;20189;-83
2021/10/13 09:06:25;;;;;;;0.77;0.73;;;12.10;99.90;;;;;;5068890;28;20239;-82
2021/10/13 09:09:07;;;;;;;0.30;0.30;;;12.00;99.90;;;;;;5092532;28;20217;-82
2021/10/13 09:11:42;;;;;;;1.93;0.63;;;11.90;99.90;;;;;;5077847;28;20288;-82
2021/10/13 09:14:22;;;;;;;0.80;0.80;;;11.50;99.90;;;;;;5087387;28;20186;-81
2021/10/13 09:17:16;;;;;;;0.57;0.57;;;11.80;99.90;;;;;;5090301;28;20276;-82
2021/10/13 09:19:51;;;;;;;0.73;0.50;;;11.80;99.90;;;;;;5099915;28;20190;-82
2021/10/13 09:22:18;;;;;;;0.57;0.57;;;12.00;99.90;;;;;;5087807;28;20594;-82
2021/10/13 09:24:48;;;;;;;0.93;0.20;;;11.90;99.90;;;;;;5067022;28;20182;-82
2021/10/13 09:27:25;;;;;;;1.33;1.33;;;11.80;99.90;;;;;;5081060;28;20244;-83
2021/10/13 09:29:57;;;;;;;0.73;0.40;;;12.20;99.90;;;;;;5068831;28;20212;-82
2021/10/13 09:32:26;;;;;;;0.70;0.70;;;12.10;99.90;;;;;;5098579;28;20179;-82
2021/10/13 09:34:57;;;;;;;0.43;0.40;;;12.10;99.90;;;;;;5086026;28;20259;-81
2021/10/13 09:37:23;;;;;;;0.10;0.10;;;12.10;99.90;;;;;;5096707;28;20543;-82
2021/10/13 09:40:02;;;;;;;0.30;0.30;;;11.90;99.90;;;;;;5083991;28;20187;-83
2021/10/13 09:42:36;;;;;;;0.30;0.30;;;12.00;99.90;;;;;;5097710;28;20259;-82
2021/10/13 09:45:02;;;;;;;0.53;0.50;;;12.00;99.90;;;;;;5087173;28;20180;-82
2021/10/13 09:47:34;;;;;;;0.73;0.73;;;11.90;99.90;;;;;;5071721;28;20243;-81
2021/10/13 09:50:00;;;;;;;0.40;0.40;;;12.00;99.90;;;;;;5092026;28;20276;-82
2021/10/13 09:52:32;;;;;;;1.33;0.80;;;12.40;99.90;;;;;;5083569;28;20182;-82
2021/10/13 09:55:08;;;;;;;0.40;0.40;;;12.10;99.90;;;;;;5095095;28;20198;-82
2021/10/13 09:57:45;;;;;;;0.37;0.27;;;12.20;99.90;;;;;;5080194;28;20167;-82
2021/10/13 10:00:13;;;;;;;0.30;0.20;;;12.50;99.90;;;;;;5089000;28;20179;-82
2021/10/13 10:02:56;;;;;;;0.73;0.73;;;12.80;99.90;;;;;;5075986;28;20204;-82
2021/10/13 10:05:37;;;;;;;1.47;1.00;;;13.10;99.90;;;;;;5092775;28;20208;-82
2021/10/13 10:08:11;;;;;;;0.60;0.60;;;12.20;99.90;;;;;;5096505;28;20179;-82
2021/10/13 10:10:57;;;;;;;0.67;0.67;;;12.30;99.90;;;;;;5075235;28;20218;-82
2021/10/13 10:13:36;;;;;;;0.53;0.53;;;12.60;99.90;;;;;;5066403;28;20197;-83
2021/10/13 10:16:02;;;;;;;1.03;0.77;;;12.80;99.90;;;;;;5078679;28;20210;-82
2021/10/13 10:18:37;;;;;;;0.30;0.30;;;13.20;99.90;;;;;;5079315;28;20190;-82
2021/10/13 10:21:26;;;;;;;0.87;0.70;;;13.60;99.90;;;;;;5076826;28;20187;-82
2021/10/13 10:24:14;;;;;;;0.73;0.43;;;14.00;99.90;;;;;;5091438;28;20181;-82
2021/10/13 10:26:40;;;;;;;1.07;0.97;;;14.10;99.90;;;;;;5075713;28;20204;-82
2021/10/13 10:29:16;;;;;;;0.30;0.30;;;13.10;99.90;;;;;;5072429;28;20252;-81
2021/10/13 10:31:55;;;;;;;1.33;0.63;;;13.40;99.90;;;;;;5074506;28;20228;-83
2021/10/13 10:34:24;;;;;;;0.33;0.23;;;13.60;99.90;;;;;;5070108;28;21029;-82
2021/10/13 10:36:50;;;;;;;0.30;0.30;;;13.80;99.90;;;;;;5072509;28;20673;-83
2021/10/13 10:39:18;;;;;;;0.60;0.60;;;13.60;99.90;;;;;;5091596;28;20330;-82
2021/10/13 10:41:52;;;;;;;0.30;0.30;;;13.70;99.90;;;;;;5082079;28;20202;-82
2021/10/13 10:44:31;;;;;;;0.30;0.30;;;13.60;99.90;;;;;;5072885;28;20192;-83
2021/10/13 10:47:04;;;;;;;1.50;0.60;;;13.90;99.90;;;;;;5083755;28;20214;-83
2021/10/13 10:49:49;;;;;;;0.30;0.30;;;14.20;99.90;;;;;;5079442;28;20194;-83
2021/10/13 10:52:22;;;;;;;0.57;0.40;;;14.40;99.90;;;;;;5077962;28;20204;-83
2021/10/13 10:55:07;;;;;;;0.33;0.23;;;14.40;99.90;;;;;;5079837;28;20339;-83
2021/10/13 10:58:11;;;;;;;1.73;0.60;;;14.50;99.90;;;;;;5086932;28;20180;-83
2021/10/13 11:00:37;;;;;;;0.83;0.83;;;14.70;99.90;;;;;;5089736;28;20191;-83
2021/10/13 11:03:21;;;;;;;0.40;0.40;;;14.80;99.90;;;;;;5086802;28;20181;-82
2021/10/13 11:05:48;;;;;;;0.20;0.20;;;14.90;99.90;;;;;;5080351;28;20243;-83
2021/10/13 11:08:14;;;;;;;0.27;0.27;;;15.20;99.90;;;;;;5079700;28;20184;-83
2021/10/13 11:10:40;;;;;;;1.87;0.53;;;15.50;99.90;;;;;;5086231;28;20288;-83
2021/10/13 11:13:06;;;;;;;0.50;0.50;;;15.70;99.90;;;;;;5090496;28;20542;-83
2021/10/13 11:15:32;;;;;;;0.13;0.13;;;15.70;99.90;;;;;;5089435;28;20207;-83
2021/10/13 11:18:13;;;;;;;0.60;0.60;;;15.50;99.90;;;;;;5073832;28;20184;-83
2021/10/13 11:20:39;;;;;;;0.87;0.87;;;15.30;99.90;;;;;;5097627;28;20187;-83
2021/10/13 11:23:06;;;;;;;0.40;0.40;;;15.20;99.90;;;;;;5089845;28;20245;-84
2021/10/13 11:25:33;;;;;;;0.77;0.73;;;14.50;99.90;;;;;;5084879;28;20235;-82
2021/10/13 11:28:07;;;;;;;0.20;0.20;;;14.60;99.90;;;;;;5081624;28;20257;-83
2021/10/13 11:30:48;;;;;;;0.37;0.20;;;14.20;99.90;;;;;;5080520;28;20209;-84
2021/10/13 11:33:16;;;;;;;1.03;0.80;;;13.80;99.90;;;;;;5085370;28;20183;-84
2021/10/13 11:35:44;;;;;;;0.20;0.20;;;13.40;99.90;;;;;;5093784;28;20280;-83
2021/10/13 11:38:14;;;;;;;0.83;0.40;;;13.20;99.90;;;;;;5098942;28;20265;-83
2021/10/13 11:40:39;;;;;;;0.43;0.43;;;12.50;99.90;;;;;;5084139;28;20230;-82
2021/10/13 11:43:13;;;;;;;0.60;0.60;;;12.20;99.90;;;;;;5090133;28;20172;-84
2021/10/13 11:45:53;;;;;;;0.10;0.10;;;12.00;99.90;;;;;;5081026;28;20201;-83
2021/10/13 11:48:23;;;;;;;0.27;0.27;;;11.90;99.90;;;;;;5082450;28;20248;-82
2021/10/13 11:50:49;;;;;;;0.13;0.13;;;11.80;99.90;;;;;;5083180;28;20284;-83
2021/10/13 11:53:15;;;;;;;0.20;0.20;;;11.90;99.90;;;;;;5083140;28;20227;-83
2021/10/13 11:55:40;;;;;;;0.23;0.23;;;12.20;99.90;;;;;;5092840;28;20207;-83
2021/10/13 11:58:06;;;;;;;0.13;0.13;;;12.40;99.90;;;;;;5088802;28;20176;-83
2021/10/13 12:00:34;;;;;;;0.20;0.20;;;12.50;99.90;;;;;;5086622;28;20173;-83
2021/10/13 12:03:12;;;;;;;0.10;0.10;;;12.70;99.90;;;;;;5081928;28;20261;-83
2021/10/13 12:05:42;;;;;;;0.10;0.10;;;12.70;99.90;;;;;;5087364;28;20205;-83
2021/10/13 12:08:10;;;;;;;0.80;0.43;;;12.40;99.90;;;;;;5085123;28;20624;-83
2021/10/13 12:10:42;;;;;;;0.33;0.33;;;12.20;99.90;;;;;;5086834;28;20692;-82
2021/10/13 12:13:13;;;;;;;0.50;0.50;;;12.20;99.90;;;;;;5086690;28;20215;-82
2021/10/13 12:15:44;;;;;;;0.30;0.30;;;12.40;99.90;;;;;;5082341;28;20192;-82
2021/10/13 12:18:11;;;;;;;1.43;0.33;;;12.60;99.90;;;;;;5080457;28;20500;-82
2021/10/13 12:20:37;;;;;;;0.63;0.47;;;12.40;99.90;;;;;;5081849;28;20191;-83
2021/10/13 12:23:14;;;;;;;0.13;0.13;;;12.60;99.90;;;;;;5084594;28;20176;-83
2021/10/13 12:25:40;;;;;;;0.30;0.30;;;13.00;99.90;;;;;;5079345;28;20216;-82
2021/10/13 12:28:20;;;;;;;0.30;0.30;;;13.00;99.90;;;;;;5082256;28;20194;-83
2021/10/13 12:30:55;;;;;;;2.87;0.40;;;13.10;99.90;;;;;;5082841;28;20232;-82
2021/10/13 12:33:21;;;;;;;0.20;0.20;;;13.20;99.90;;;;;;5089035;28;20172;-83
2021/10/13 12:35:46;;;;;;;0.20;0.20;;;13.10;99.90;;;;;;5079621;28;20673;-83
2021/10/13 12:38:17;;;;;;;0.10;0.10;;;13.20;99.90;;;;;;5092462;28;20186;-83
2021/10/13 12:41:05;;;;;;;0.30;0.30;;;13.30;99.90;;;;;;5095447;28;20236;-85
2021/10/13 12:43:31;;;;;;;1.40;0.47;;;13.50;99.90;;;;;;5082587;28;20177;-83
2021/10/13 12:46:17;;;;;;;0.40;0.40;;;13.60;99.90;;;;;;5094642;28;20350;-83
2021/10/13 12:48:43;;;;;;;0.20;0.20;;;14.00;99.90;;;;;;5064753;28;20217;-83
2021/10/13 12:51:12;;;;;;;0.50;0.50;;;13.90;99.90;;;;;;5071963;28;20770;-82
2021/10/13 12:53:39;;;;;;;0.30;0.30;;;13.70;99.90;;;;;;5088152;28;20637;-82
2021/10/13 12:56:07;;;;;;;0.60;0.50;;;13.50;99.90;;;;;;5091242;28;20205;-81
2021/10/13 12:58:34;;;;;;;0.50;0.40;;;13.40;99.90;;;;;;5096489;28;20277;-81
2021/10/13 13:00:59;;;;;;;1.10;0.50;;;13.20;99.90;;;;;;5085294;28;20180;-82
2021/10/13 13:03:26;;;;;;;1.40;0.93;;;13.10;99.90;;;;;;5086430;28;20200;-82